sensor_id;sensor_type;location;lat;lon;timestamp;P1;durP1;ratioP1;P2;durP2;ratioP2
23068;SDS011;11702;50.856;4.348;2022-09-09T00:04:22;6.88;;;1.92;;
23068;SDS011;11702;50.856;4.348;2022-09-09T00:09:45;7.30;;;2.28;;
23068;SDS011;11702;50.856;4.348;2022-09-09T00:12:39;10.45;;;2.45;;
23068;SDS011;11702;50.856;4.348;2022-09-09T00:15:22;4.65;;;1.70;;
23068;SDS011;11702;50.856;4.348;2022-09-09T00:20:32;7.03;;;1.85;;
23068;SDS011;11702;50.856;4.348;2022-09-09T00:23:24;5.90;;;2.10;;
23068;SDS011;11702;50.856;4.348;2022-09-09T00:25:57;5.43;;;1.70;;
23068;SDS011;11702;50.856;4.348;2022-09-09T00:28:28;4.05;;;1.60;;
23068;SDS011;11702;50.856;4.348;2022-09-09T00:31:18;7.00;;;2.00;;
23068;SDS011;11702;50.856;4.348;2022-09-09T00:33:49;8.18;;;2.00;;
23068;SDS011;11702;50.856;4.348;2022-09-09T00:36:18;5.07;;;1.95;;
23068;SDS011;11702;50.856;4.348;2022-09-09T00:38:49;6.38;;;1.65;;
23068;SDS011;11702;50.856;4.348;2022-09-09T00:41:22;5.47;;;1.80;;
23068;SDS011;11702;50.856;4.348;2022-09-09T00:44:46;4.93;;;1.85;;
23068;SDS011;11702;50.856;4.348;2022-09-09T00:47:01;4.50;;;1.85;;
23068;SDS011;11702;50.856;4.348;2022-09-09T00:52:23;4.43;;;1.55;;
23068;SDS011;11702;50.856;4.348;2022-09-09T00:55:08;4.50;;;1.55;;
23068;SDS011;11702;50.856;4.348;2022-09-09T00:57:42;6.00;;;2.08;;
23068;SDS011;11702;50.856;4.348;2022-09-09T01:00:18;7.82;;;1.73;;
23068;SDS011;11702;50.856;4.348;2022-09-09T01:02:53;5.32;;;1.70;;
23068;SDS011;11702;50.856;4.348;2022-09-09T01:05:44;6.03;;;1.60;;
23068;SDS011;11702;50.856;4.348;2022-09-09T01:13:26;4.82;;;1.80;;
23068;SDS011;11702;50.856;4.348;2022-09-09T01:15:55;5.90;;;1.80;;
23068;SDS011;11702;50.856;4.348;2022-09-09T01:18:26;7.13;;;2.10;;
23068;SDS011;11702;50.856;4.348;2022-09-09T01:26:47;4.78;;;1.50;;
23068;SDS011;11702;50.856;4.348;2022-09-09T01:29:17;5.28;;;1.80;;
23068;SDS011;11702;50.856;4.348;2022-09-09T01:31:56;6.38;;;1.80;;
23068;SDS011;11702;50.856;4.348;2022-09-09T01:34:38;13.30;;;2.17;;
23068;SDS011;11702;50.856;4.348;2022-09-09T01:37:10;5.95;;;1.80;;
23068;SDS011;11702;50.856;4.348;2022-09-09T01:39:38;9.95;;;1.90;;
23068;SDS011;11702;50.856;4.348;2022-09-09T01:42:07;3.35;;;1.92;;
23068;SDS011;11702;50.856;4.348;2022-09-09T01:44:36;6.38;;;2.40;;
23068;SDS011;11702;50.856;4.348;2022-09-09T01:47:04;9.15;;;1.80;;
23068;SDS011;11702;50.856;4.348;2022-09-09T01:49:31;6.50;;;2.15;;
23068;SDS011;11702;50.856;4.348;2022-09-09T01:51:58;14.00;;;2.10;;
23068;SDS011;11702;50.856;4.348;2022-09-09T01:54:25;11.00;;;1.85;;
23068;SDS011;11702;50.856;4.348;2022-09-09T02:04:45;9.23;;;2.33;;
23068;SDS011;11702;50.856;4.348;2022-09-09T02:12:53;15.32;;;2.90;;
23068;SDS011;11702;50.856;4.348;2022-09-09T02:15:52;5.72;;;2.33;;
23068;SDS011;11702;50.856;4.348;2022-09-09T02:18:45;9.00;;;2.28;;
23068;SDS011;11702;50.856;4.348;2022-09-09T02:21:15;7.25;;;2.20;;
23068;SDS011;11702;50.856;4.348;2022-09-09T02:23:42;7.22;;;2.70;;
23068;SDS011;11702;50.856;4.348;2022-09-09T02:26:14;11.65;;;2.78;;
23068;SDS011;11702;50.856;4.348;2022-09-09T02:28:45;10.65;;;2.70;;
23068;SDS011;11702;50.856;4.348;2022-09-09T02:33:45;6.97;;;2.17;;
23068;SDS011;11702;50.856;4.348;2022-09-09T02:36:17;11.02;;;2.67;;
23068;SDS011;11702;50.856;4.348;2022-09-09T02:38:46;10.98;;;2.40;;
23068;SDS011;11702;50.856;4.348;2022-09-09T02:41:23;11.82;;;2.80;;
23068;SDS011;11702;50.856;4.348;2022-09-09T02:43:52;5.63;;;2.10;;
23068;SDS011;11702;50.856;4.348;2022-09-09T02:46:22;8.02;;;2.00;;
23068;SDS011;11702;50.856;4.348;2022-09-09T02:52:07;11.38;;;2.45;;
23068;SDS011;11702;50.856;4.348;2022-09-09T02:56:34;9.82;;;2.38;;
23068;SDS011;11702;50.856;4.348;2022-09-09T02:59:07;11.75;;;2.60;;
23068;SDS011;11702;50.856;4.348;2022-09-09T03:01:33;7.68;;;2.50;;
23068;SDS011;11702;50.856;4.348;2022-09-09T03:04:00;8.68;;;2.40;;
23068;SDS011;11702;50.856;4.348;2022-09-09T03:06:27;7.63;;;2.45;;
23068;SDS011;11702;50.856;4.348;2022-09-09T03:08:53;12.75;;;3.03;;
23068;SDS011;11702;50.856;4.348;2022-09-09T03:11:18;8.80;;;2.55;;
23068;SDS011;11702;50.856;4.348;2022-09-09T03:13:44;10.77;;;2.58;;
23068;SDS011;11702;50.856;4.348;2022-09-09T03:16:09;8.38;;;2.53;;
23068;SDS011;11702;50.856;4.348;2022-09-09T03:18:35;16.48;;;2.55;;
23068;SDS011;11702;50.856;4.348;2022-09-09T03:21:01;7.97;;;2.22;;
23068;SDS011;11702;50.856;4.348;2022-09-09T03:23:26;8.10;;;2.45;;
23068;SDS011;11702;50.856;4.348;2022-09-09T03:25:53;9.32;;;2.60;;
23068;SDS011;11702;50.856;4.348;2022-09-09T03:28:21;12.30;;;2.33;;
23068;SDS011;11702;50.856;4.348;2022-09-09T03:30:48;11.18;;;2.15;;
23068;SDS011;11702;50.856;4.348;2022-09-09T03:33:14;9.50;;;2.35;;
23068;SDS011;11702;50.856;4.348;2022-09-09T03:35:44;9.95;;;2.45;;
23068;SDS011;11702;50.856;4.348;2022-09-09T03:38:12;11.15;;;2.28;;
23068;SDS011;11702;50.856;4.348;2022-09-09T03:40:38;11.50;;;2.97;;
23068;SDS011;11702;50.856;4.348;2022-09-09T03:43:04;10.45;;;2.15;;
23068;SDS011;11702;50.856;4.348;2022-09-09T03:45:29;11.35;;;2.50;;
23068;SDS011;11702;50.856;4.348;2022-09-09T03:47:55;9.80;;;2.28;;
23068;SDS011;11702;50.856;4.348;2022-09-09T03:50:22;8.57;;;2.50;;
23068;SDS011;11702;50.856;4.348;2022-09-09T03:52:48;7.88;;;1.98;;
23068;SDS011;11702;50.856;4.348;2022-09-09T03:55:14;15.15;;;2.50;;
23068;SDS011;11702;50.856;4.348;2022-09-09T03:57:39;10.05;;;2.45;;
23068;SDS011;11702;50.856;4.348;2022-09-09T04:00:06;9.13;;;2.33;;
23068;SDS011;11702;50.856;4.348;2022-09-09T04:02:32;11.55;;;2.65;;
23068;SDS011;11702;50.856;4.348;2022-09-09T04:04:58;10.45;;;3.13;;
23068;SDS011;11702;50.856;4.348;2022-09-09T04:07:24;9.48;;;2.42;;
23068;SDS011;11702;50.856;4.348;2022-09-09T04:09:52;13.43;;;2.63;;
23068;SDS011;11702;50.856;4.348;2022-09-09T04:12:18;10.10;;;2.70;;
23068;SDS011;11702;50.856;4.348;2022-09-09T04:14:44;10.80;;;2.95;;
23068;SDS011;11702;50.856;4.348;2022-09-09T04:17:09;10.50;;;2.97;;
23068;SDS011;11702;50.856;4.348;2022-09-09T04:19:35;12.07;;;2.65;;
23068;SDS011;11702;50.856;4.348;2022-09-09T04:22:01;11.40;;;2.40;;
23068;SDS011;11702;50.856;4.348;2022-09-09T04:24:26;11.80;;;2.47;;
23068;SDS011;11702;50.856;4.348;2022-09-09T04:26:54;11.85;;;2.50;;
23068;SDS011;11702;50.856;4.348;2022-09-09T04:29:19;10.60;;;2.80;;
23068;SDS011;11702;50.856;4.348;2022-09-09T04:31:46;17.83;;;2.45;;
23068;SDS011;11702;50.856;4.348;2022-09-09T04:34:13;11.13;;;3.05;;
23068;SDS011;11702;50.856;4.348;2022-09-09T04:36:39;9.20;;;2.88;;
23068;SDS011;11702;50.856;4.348;2022-09-09T04:39:05;11.07;;;3.10;;
23068;SDS011;11702;50.856;4.348;2022-09-09T04:41:31;12.55;;;3.28;;
23068;SDS011;11702;50.856;4.348;2022-09-09T04:43:57;16.30;;;3.58;;
23068;SDS011;11702;50.856;4.348;2022-09-09T04:46:22;12.15;;;2.92;;
23068;SDS011;11702;50.856;4.348;2022-09-09T04:48:49;16.52;;;4.70;;
23068;SDS011;11702;50.856;4.348;2022-09-09T04:51:17;12.93;;;4.07;;
23068;SDS011;11702;50.856;4.348;2022-09-09T04:53:42;7.07;;;2.83;;
23068;SDS011;11702;50.856;4.348;2022-09-09T04:56:12;9.13;;;2.92;;
23068;SDS011;11702;50.856;4.348;2022-09-09T04:58:39;9.52;;;2.35;;
23068;SDS011;11702;50.856;4.348;2022-09-09T05:01:25;13.48;;;3.05;;
23068;SDS011;11702;50.856;4.348;2022-09-09T05:03:55;11.93;;;3.38;;
23068;SDS011;11702;50.856;4.348;2022-09-09T05:06:21;12.90;;;3.38;;
23068;SDS011;11702;50.856;4.348;2022-09-09T05:08:47;11.02;;;3.03;;
23068;SDS011;11702;50.856;4.348;2022-09-09T05:11:21;11.57;;;3.22;;
23068;SDS011;11702;50.856;4.348;2022-09-09T05:13:49;10.73;;;3.38;;
23068;SDS011;11702;50.856;4.348;2022-09-09T05:16:16;14.38;;;3.22;;
23068;SDS011;11702;50.856;4.348;2022-09-09T05:18:43;11.73;;;3.33;;
23068;SDS011;11702;50.856;4.348;2022-09-09T05:21:09;14.13;;;2.97;;
23068;SDS011;11702;50.856;4.348;2022-09-09T05:23:36;12.48;;;3.65;;
23068;SDS011;11702;50.856;4.348;2022-09-09T05:26:02;16.25;;;3.38;;
23068;SDS011;11702;50.856;4.348;2022-09-09T05:28:29;14.13;;;3.17;;
23068;SDS011;11702;50.856;4.348;2022-09-09T05:31:00;12.90;;;2.95;;
23068;SDS011;11702;50.856;4.348;2022-09-09T05:33:31;14.88;;;2.83;;
23068;SDS011;11702;50.856;4.348;2022-09-09T05:36:02;10.20;;;3.20;;
23068;SDS011;11702;50.856;4.348;2022-09-09T05:38:30;13.15;;;3.35;;
23068;SDS011;11702;50.856;4.348;2022-09-09T05:41:03;16.45;;;3.25;;
23068;SDS011;11702;50.856;4.348;2022-09-09T05:43:33;16.88;;;3.47;;
23068;SDS011;11702;50.856;4.348;2022-09-09T05:46:02;10.35;;;3.25;;
23068;SDS011;11702;50.856;4.348;2022-09-09T05:48:37;12.63;;;3.55;;
23068;SDS011;11702;50.856;4.348;2022-09-09T05:51:10;13.80;;;3.00;;
23068;SDS011;11702;50.856;4.348;2022-09-09T05:53:42;15.25;;;3.08;;
23068;SDS011;11702;50.856;4.348;2022-09-09T05:56:09;14.60;;;3.67;;
23068;SDS011;11702;50.856;4.348;2022-09-09T05:58:37;14.27;;;3.47;;
23068;SDS011;11702;50.856;4.348;2022-09-09T06:01:11;12.02;;;3.70;;
23068;SDS011;11702;50.856;4.348;2022-09-09T06:03:41;14.68;;;3.45;;
23068;SDS011;11702;50.856;4.348;2022-09-09T06:06:09;7.53;;;2.97;;
23068;SDS011;11702;50.856;4.348;2022-09-09T06:08:45;17.17;;;3.53;;
23068;SDS011;11702;50.856;4.348;2022-09-09T06:11:19;13.27;;;2.67;;
23068;SDS011;11702;50.856;4.348;2022-09-09T06:13:49;13.38;;;3.20;;
23068;SDS011;11702;50.856;4.348;2022-09-09T06:16:20;11.45;;;2.92;;
23068;SDS011;11702;50.856;4.348;2022-09-09T06:18:52;9.75;;;2.30;;
23068;SDS011;11702;50.856;4.348;2022-09-09T06:21:20;13.52;;;2.67;;
23068;SDS011;11702;50.856;4.348;2022-09-09T06:23:47;22.90;;;3.25;;
23068;SDS011;11702;50.856;4.348;2022-09-09T06:26:15;13.60;;;2.90;;
23068;SDS011;11702;50.856;4.348;2022-09-09T06:28:43;10.38;;;2.83;;
23068;SDS011;11702;50.856;4.348;2022-09-09T06:31:12;12.95;;;2.38;;
23068;SDS011;11702;50.856;4.348;2022-09-09T06:33:48;9.25;;;2.50;;
23068;SDS011;11702;50.856;4.348;2022-09-09T06:36:19;8.85;;;3.03;;
23068;SDS011;11702;50.856;4.348;2022-09-09T06:38:46;12.45;;;3.22;;
23068;SDS011;11702;50.856;4.348;2022-09-09T06:41:13;12.27;;;2.70;;
23068;SDS011;11702;50.856;4.348;2022-09-09T06:43:41;11.43;;;2.33;;
23068;SDS011;11702;50.856;4.348;2022-09-09T06:46:17;11.80;;;3.30;;
23068;SDS011;11702;50.856;4.348;2022-09-09T06:48:44;11.25;;;3.05;;
23068;SDS011;11702;50.856;4.348;2022-09-09T06:51:11;8.43;;;2.40;;
23068;SDS011;11702;50.856;4.348;2022-09-09T06:53:45;8.90;;;2.60;;
23068;SDS011;11702;50.856;4.348;2022-09-09T06:56:17;9.82;;;2.70;;
23068;SDS011;11702;50.856;4.348;2022-09-09T07:01:37;14.25;;;3.17;;
23068;SDS011;11702;50.856;4.348;2022-09-09T07:04:08;19.38;;;3.70;;
23068;SDS011;11702;50.856;4.348;2022-09-09T07:06:36;13.57;;;2.75;;
23068;SDS011;11702;50.856;4.348;2022-09-09T07:09:04;13.15;;;2.75;;
23068;SDS011;11702;50.856;4.348;2022-09-09T07:14:07;12.32;;;2.83;;
23068;SDS011;11702;50.856;4.348;2022-09-09T07:16:33;9.93;;;2.55;;
23068;SDS011;11702;50.856;4.348;2022-09-09T07:19:02;6.68;;;2.20;;
23068;SDS011;11702;50.856;4.348;2022-09-09T07:21:29;12.73;;;2.60;;
23068;SDS011;11702;50.856;4.348;2022-09-09T07:23:55;11.80;;;2.42;;
23068;SDS011;11702;50.856;4.348;2022-09-09T07:26:23;8.23;;;2.58;;
23068;SDS011;11702;50.856;4.348;2022-09-09T07:28:50;14.20;;;2.83;;
23068;SDS011;11702;50.856;4.348;2022-09-09T07:31:17;9.38;;;2.13;;
23068;SDS011;11702;50.856;4.348;2022-09-09T07:33:50;15.07;;;2.95;;
23068;SDS011;11702;50.856;4.348;2022-09-09T07:36:17;9.15;;;2.42;;
23068;SDS011;11702;50.856;4.348;2022-09-09T07:38:57;10.35;;;3.40;;
23068;SDS011;11702;50.856;4.348;2022-09-09T07:43:56;9.52;;;2.58;;
23068;SDS011;11702;50.856;4.348;2022-09-09T07:46:23;8.05;;;2.28;;
23068;SDS011;11702;50.856;4.348;2022-09-09T07:48:53;10.57;;;2.97;;
23068;SDS011;11702;50.856;4.348;2022-09-09T07:51:39;10.88;;;3.85;;
23068;SDS011;11702;50.856;4.348;2022-09-09T07:54:11;11.93;;;2.95;;
23068;SDS011;11702;50.856;4.348;2022-09-09T07:56:39;9.55;;;2.97;;
23068;SDS011;11702;50.856;4.348;2022-09-09T07:59:05;11.68;;;2.53;;
23068;SDS011;11702;50.856;4.348;2022-09-09T08:01:33;11.75;;;2.95;;
23068;SDS011;11702;50.856;4.348;2022-09-09T08:04:08;10.05;;;2.80;;
23068;SDS011;11702;50.856;4.348;2022-09-09T08:06:41;15.80;;;2.47;;
23068;SDS011;11702;50.856;4.348;2022-09-09T08:09:09;13.80;;;3.72;;
23068;SDS011;11702;50.856;4.348;2022-09-09T08:11:39;13.13;;;2.35;;
23068;SDS011;11702;50.856;4.348;2022-09-09T08:14:08;12.27;;;3.00;;
23068;SDS011;11702;50.856;4.348;2022-09-09T08:16:37;10.70;;;2.63;;
23068;SDS011;11702;50.856;4.348;2022-09-09T08:19:08;12.52;;;2.75;;
23068;SDS011;11702;50.856;4.348;2022-09-09T08:21:35;9.25;;;2.72;;
23068;SDS011;11702;50.856;4.348;2022-09-09T08:24:04;9.93;;;2.55;;
23068;SDS011;11702;50.856;4.348;2022-09-09T08:26:34;9.27;;;2.92;;
23068;SDS011;11702;50.856;4.348;2022-09-09T08:29:04;8.02;;;2.17;;
23068;SDS011;11702;50.856;4.348;2022-09-09T08:31:38;9.88;;;2.65;;
23068;SDS011;11702;50.856;4.348;2022-09-09T08:34:07;9.98;;;3.28;;
23068;SDS011;11702;50.856;4.348;2022-09-09T08:36:35;13.10;;;2.90;;
23068;SDS011;11702;50.856;4.348;2022-09-09T08:39:09;14.95;;;5.80;;
23068;SDS011;11702;50.856;4.348;2022-09-09T08:41:53;12.68;;;4.05;;
23068;SDS011;11702;50.856;4.348;2022-09-09T08:58:31;11.95;;;2.67;;
23068;SDS011;11702;50.856;4.348;2022-09-09T09:01:20;9.70;;;2.65;;
23068;SDS011;11702;50.856;4.348;2022-09-09T09:12:40;9.43;;;3.20;;
23068;SDS011;11702;50.856;4.348;2022-09-09T09:15:20;11.38;;;3.20;;
23068;SDS011;11702;50.856;4.348;2022-09-09T09:17:51;12.02;;;3.80;;
23068;SDS011;11702;50.856;4.348;2022-09-09T09:20:18;11.90;;;3.60;;
23068;SDS011;11702;50.856;4.348;2022-09-09T09:23:06;15.45;;;3.35;;
23068;SDS011;11702;50.856;4.348;2022-09-09T09:25:40;11.10;;;3.22;;
23068;SDS011;11702;50.856;4.348;2022-09-09T09:28:15;10.57;;;2.95;;
23068;SDS011;11702;50.856;4.348;2022-09-09T09:30:45;13.68;;;3.20;;
23068;SDS011;11702;50.856;4.348;2022-09-09T09:36:14;12.50;;;3.15;;
23068;SDS011;11702;50.856;4.348;2022-09-09T09:38:51;8.18;;;2.75;;
23068;SDS011;11702;50.856;4.348;2022-09-09T09:43:54;15.18;;;3.72;;
23068;SDS011;11702;50.856;4.348;2022-09-09T09:46:25;12.65;;;2.97;;
23068;SDS011;11702;50.856;4.348;2022-09-09T09:51:26;12.05;;;3.10;;
23068;SDS011;11702;50.856;4.348;2022-09-09T09:54:03;11.57;;;3.38;;
23068;SDS011;11702;50.856;4.348;2022-09-09T09:56:44;15.57;;;3.65;;
23068;SDS011;11702;50.856;4.348;2022-09-09T10:04:20;9.05;;;2.83;;
23068;SDS011;11702;50.856;4.348;2022-09-09T10:06:48;9.98;;;2.92;;
23068;SDS011;11702;50.856;4.348;2022-09-09T10:34:27;10.40;;;2.90;;
23068;SDS011;11702;50.856;4.348;2022-09-09T10:36:56;9.48;;;2.78;;
23068;SDS011;11702;50.856;4.348;2022-09-09T10:49:53;11.38;;;2.92;;
23068;SDS011;11702;50.856;4.348;2022-09-09T10:53:00;8.88;;;2.42;;
23068;SDS011;11702;50.856;4.348;2022-09-09T10:55:53;9.32;;;2.63;;
23068;SDS011;11702;50.856;4.348;2022-09-09T10:58:35;7.93;;;3.08;;
23068;SDS011;11702;50.856;4.348;2022-09-09T11:01:21;9.85;;;2.38;;
23068;SDS011;11702;50.856;4.348;2022-09-09T11:04:38;6.43;;;2.38;;
23068;SDS011;11702;50.856;4.348;2022-09-09T11:06:45;6.68;;;2.10;;
23068;SDS011;11702;50.856;4.348;2022-09-09T11:09:18;10.15;;;2.92;;
23068;SDS011;11702;50.856;4.348;2022-09-09T11:11:52;7.57;;;2.38;;
23068;SDS011;11702;50.856;4.348;2022-09-09T11:14:21;8.15;;;2.03;;
23068;SDS011;11702;50.856;4.348;2022-09-09T11:16:54;5.38;;;1.95;;
23068;SDS011;11702;50.856;4.348;2022-09-09T11:19:24;10.38;;;2.50;;
23068;SDS011;11702;50.856;4.348;2022-09-09T11:22:02;7.53;;;2.28;;
23068;SDS011;11702;50.856;4.348;2022-09-09T11:24:41;6.90;;;2.15;;
23068;SDS011;11702;50.856;4.348;2022-09-09T11:27:25;8.15;;;2.33;;
23068;SDS011;11702;50.856;4.348;2022-09-09T11:30:19;6.40;;;2.47;;
23068;SDS011;11702;50.856;4.348;2022-09-09T11:36:25;7.18;;;2.30;;
23068;SDS011;11702;50.856;4.348;2022-09-09T11:38:50;8.73;;;2.20;;
23068;SDS011;11702;50.856;4.348;2022-09-09T11:41:17;6.95;;;2.05;;
23068;SDS011;11702;50.856;4.348;2022-09-09T11:43:50;7.28;;;1.92;;
23068;SDS011;11702;50.856;4.348;2022-09-09T11:46:17;8.02;;;2.30;;
23068;SDS011;11702;50.856;4.348;2022-09-09T11:51:53;8.05;;;2.10;;
23068;SDS011;11702;50.856;4.348;2022-09-09T11:54:32;10.88;;;2.05;;
23068;SDS011;11702;50.856;4.348;2022-09-09T12:00:05;8.75;;;2.30;;
23068;SDS011;11702;50.856;4.348;2022-09-09T12:02:31;9.75;;;2.38;;
23068;SDS011;11702;50.856;4.348;2022-09-09T12:05:09;6.35;;;1.90;;
23068;SDS011;11702;50.856;4.348;2022-09-09T12:17:41;6.25;;;2.05;;
23068;SDS011;11702;50.856;4.348;2022-09-09T12:25:57;7.72;;;2.70;;
23068;SDS011;11702;50.856;4.348;2022-09-09T12:31:20;7.38;;;2.03;;
23068;SDS011;11702;50.856;4.348;2022-09-09T12:34:16;8.63;;;2.15;;
23068;SDS011;11702;50.856;4.348;2022-09-09T12:40:04;7.32;;;2.05;;
23068;SDS011;11702;50.856;4.348;2022-09-09T12:42:32;10.82;;;2.03;;
23068;SDS011;11702;50.856;4.348;2022-09-09T12:45:01;5.82;;;1.98;;
23068;SDS011;11702;50.856;4.348;2022-09-09T12:47:31;7.10;;;1.83;;
23068;SDS011;11702;50.856;4.348;2022-09-09T12:50:17;6.35;;;2.20;;
23068;SDS011;11702;50.856;4.348;2022-09-09T12:52:47;7.70;;;2.17;;
23068;SDS011;11702;50.856;4.348;2022-09-09T12:55:19;5.57;;;1.80;;
23068;SDS011;11702;50.856;4.348;2022-09-09T12:57:50;3.15;;;1.80;;
23068;SDS011;11702;50.856;4.348;2022-09-09T13:00:18;6.20;;;1.95;;
23068;SDS011;11702;50.856;4.348;2022-09-09T13:03:33;7.90;;;1.63;;
23068;SDS011;11702;50.856;4.348;2022-09-09T13:05:43;6.75;;;2.25;;
23068;SDS011;11702;50.856;4.348;2022-09-09T13:08:09;4.70;;;1.98;;
23068;SDS011;11702;50.856;4.348;2022-09-09T13:10:58;7.22;;;2.25;;
23068;SDS011;11702;50.856;4.348;2022-09-09T13:13:35;5.80;;;1.60;;
23068;SDS011;11702;50.856;4.348;2022-09-09T13:16:03;3.78;;;1.67;;
23068;SDS011;11702;50.856;4.348;2022-09-09T13:18:36;6.28;;;1.80;;
23068;SDS011;11702;50.856;4.348;2022-09-09T13:21:05;8.20;;;2.13;;
23068;SDS011;11702;50.856;4.348;2022-09-09T13:23:34;4.97;;;1.63;;
23068;SDS011;11702;50.856;4.348;2022-09-09T13:26:02;5.30;;;1.90;;
23068;SDS011;11702;50.856;4.348;2022-09-09T13:28:46;4.53;;;1.60;;
23068;SDS011;11702;50.856;4.348;2022-09-09T13:31:23;3.97;;;1.80;;
23068;SDS011;11702;50.856;4.348;2022-09-09T13:33:58;6.68;;;1.70;;
23068;SDS011;11702;50.856;4.348;2022-09-09T13:36:30;6.50;;;1.90;;
23068;SDS011;11702;50.856;4.348;2022-09-09T13:38:59;4.82;;;1.50;;
23068;SDS011;11702;50.856;4.348;2022-09-09T13:41:29;4.05;;;1.48;;
23068;SDS011;11702;50.856;4.348;2022-09-09T13:43:55;6.03;;;1.58;;
23068;SDS011;11702;50.856;4.348;2022-09-09T13:46:38;3.28;;;1.92;;
23068;SDS011;11702;50.856;4.348;2022-09-09T13:51:43;5.75;;;1.60;;
23068;SDS011;11702;50.856;4.348;2022-09-09T13:54:12;5.68;;;2.28;;
23068;SDS011;11702;50.856;4.348;2022-09-09T13:56:39;4.05;;;1.52;;
23068;SDS011;11702;50.856;4.348;2022-09-09T13:59:09;4.78;;;1.58;;
23068;SDS011;11702;50.856;4.348;2022-09-09T14:01:37;7.00;;;1.65;;
23068;SDS011;11702;50.856;4.348;2022-09-09T14:04:03;5.68;;;2.10;;
23068;SDS011;11702;50.856;4.348;2022-09-09T14:06:31;5.65;;;1.65;;
23068;SDS011;11702;50.856;4.348;2022-09-09T14:08:57;3.13;;;1.55;;
23068;SDS011;11702;50.856;4.348;2022-09-09T14:11:23;3.30;;;1.40;;
23068;SDS011;11702;50.856;4.348;2022-09-09T14:13:49;4.78;;;1.60;;
23068;SDS011;11702;50.856;4.348;2022-09-09T14:16:18;3.78;;;1.90;;
23068;SDS011;11702;50.856;4.348;2022-09-09T14:18:44;8.27;;;2.28;;
23068;SDS011;11702;50.856;4.348;2022-09-09T14:21:10;11.60;;;2.13;;
23068;SDS011;11702;50.856;4.348;2022-09-09T14:23:36;8.07;;;1.50;;
23068;SDS011;11702;50.856;4.348;2022-09-09T14:26:05;6.65;;;2.00;;
23068;SDS011;11702;50.856;4.348;2022-09-09T14:28:31;6.28;;;2.03;;
23068;SDS011;11702;50.856;4.348;2022-09-09T14:31:01;5.40;;;1.80;;
23068;SDS011;11702;50.856;4.348;2022-09-09T14:33:28;5.30;;;2.03;;
23068;SDS011;11702;50.856;4.348;2022-09-09T14:35:58;3.33;;;1.52;;
23068;SDS011;11702;50.856;4.348;2022-09-09T14:38:26;8.10;;;2.08;;
23068;SDS011;11702;50.856;4.348;2022-09-09T14:40:58;13.00;;;2.97;;
23068;SDS011;11702;50.856;4.348;2022-09-09T14:43:29;7.78;;;2.17;;
23068;SDS011;11702;50.856;4.348;2022-09-09T14:45:57;7.32;;;2.17;;
23068;SDS011;11702;50.856;4.348;2022-09-09T14:48:36;5.15;;;1.98;;
23068;SDS011;11702;50.856;4.348;2022-09-09T14:51:12;8.70;;;2.17;;
23068;SDS011;11702;50.856;4.348;2022-09-09T14:53:52;5.57;;;1.70;;
23068;SDS011;11702;50.856;4.348;2022-09-09T14:56:20;7.03;;;1.77;;
23068;SDS011;11702;50.856;4.348;2022-09-09T14:58:48;5.28;;;1.70;;
23068;SDS011;11702;50.856;4.348;2022-09-09T15:01:15;6.72;;;1.50;;
23068;SDS011;11702;50.856;4.348;2022-09-09T15:03:42;6.25;;;1.90;;
23068;SDS011;11702;50.856;4.348;2022-09-09T15:06:15;7.85;;;1.92;;
23068;SDS011;11702;50.856;4.348;2022-09-09T15:08:44;3.70;;;1.75;;
23068;SDS011;11702;50.856;4.348;2022-09-09T15:11:11;5.20;;;1.80;;
23068;SDS011;11702;50.856;4.348;2022-09-09T15:13:38;15.20;;;2.08;;
23068;SDS011;11702;50.856;4.348;2022-09-09T15:16:12;6.93;;;2.05;;
23068;SDS011;11702;50.856;4.348;2022-09-09T15:18:42;5.85;;;1.75;;
23068;SDS011;11702;50.856;4.348;2022-09-09T15:21:10;4.35;;;1.80;;
23068;SDS011;11702;50.856;4.348;2022-09-09T15:26:07;7.57;;;1.70;;
23068;SDS011;11702;50.856;4.348;2022-09-09T15:28:34;6.38;;;1.67;;
23068;SDS011;11702;50.856;4.348;2022-09-09T15:31:04;7.13;;;1.60;;
23068;SDS011;11702;50.856;4.348;2022-09-09T15:33:32;7.10;;;2.63;;
23068;SDS011;11702;50.856;4.348;2022-09-09T15:35:58;6.32;;;1.70;;
23068;SDS011;11702;50.856;4.348;2022-09-09T15:38:25;5.20;;;1.88;;
23068;SDS011;11702;50.856;4.348;2022-09-09T15:40:54;5.18;;;2.00;;
23068;SDS011;11702;50.856;4.348;2022-09-09T15:43:20;6.63;;;1.73;;
23068;SDS011;11702;50.856;4.348;2022-09-09T15:45:46;7.70;;;1.75;;
23068;SDS011;11702;50.856;4.348;2022-09-09T15:48:21;6.13;;;1.30;;
23068;SDS011;11702;50.856;4.348;2022-09-09T15:51:03;8.23;;;2.42;;
23068;SDS011;11702;50.856;4.348;2022-09-09T15:53:29;4.18;;;1.80;;
23068;SDS011;11702;50.856;4.348;2022-09-09T15:55:57;5.47;;;1.70;;
23068;SDS011;11702;50.856;4.348;2022-09-09T15:58:23;4.82;;;1.67;;
23068;SDS011;11702;50.856;4.348;2022-09-09T16:00:48;5.43;;;2.05;;
23068;SDS011;11702;50.856;4.348;2022-09-09T16:03:14;6.28;;;1.50;;
23068;SDS011;11702;50.856;4.348;2022-09-09T16:05:40;5.25;;;1.77;;
23068;SDS011;11702;50.856;4.348;2022-09-09T16:08:06;5.80;;;1.83;;
23068;SDS011;11702;50.856;4.348;2022-09-09T16:10:32;5.47;;;2.13;;
23068;SDS011;11702;50.856;4.348;2022-09-09T16:12:57;6.32;;;2.10;;
23068;SDS011;11702;50.856;4.348;2022-09-09T16:15:23;8.75;;;2.22;;
23068;SDS011;11702;50.856;4.348;2022-09-09T16:17:52;6.05;;;2.30;;
23068;SDS011;11702;50.856;4.348;2022-09-09T16:20:19;7.63;;;2.65;;
23068;SDS011;11702;50.856;4.348;2022-09-09T16:22:45;6.47;;;2.13;;
23068;SDS011;11702;50.856;4.348;2022-09-09T16:25:11;5.82;;;2.30;;
23068;SDS011;11702;50.856;4.348;2022-09-09T16:27:36;8.27;;;2.20;;
23068;SDS011;11702;50.856;4.348;2022-09-09T16:30:02;5.68;;;2.40;;
23068;SDS011;11702;50.856;4.348;2022-09-09T16:32:28;5.88;;;1.90;;
23068;SDS011;11702;50.856;4.348;2022-09-09T16:34:54;4.80;;;1.60;;
23068;SDS011;11702;50.856;4.348;2022-09-09T16:37:20;4.65;;;1.65;;
23068;SDS011;11702;50.856;4.348;2022-09-09T16:39:45;3.53;;;1.58;;
23068;SDS011;11702;50.856;4.348;2022-09-09T16:42:15;4.25;;;1.83;;
23068;SDS011;11702;50.856;4.348;2022-09-09T16:44:41;3.45;;;1.75;;
23068;SDS011;11702;50.856;4.348;2022-09-09T16:47:07;5.35;;;1.77;;
23068;SDS011;11702;50.856;4.348;2022-09-09T16:49:33;5.00;;;1.80;;
23068;SDS011;11702;50.856;4.348;2022-09-09T16:51:58;4.35;;;1.80;;
23068;SDS011;11702;50.856;4.348;2022-09-09T16:54:24;5.75;;;2.92;;
23068;SDS011;11702;50.856;4.348;2022-09-09T16:56:52;5.75;;;3.15;;
23068;SDS011;11702;50.856;4.348;2022-09-09T16:59:18;6.68;;;1.77;;
23068;SDS011;11702;50.856;4.348;2022-09-09T17:01:53;6.50;;;1.90;;
23068;SDS011;11702;50.856;4.348;2022-09-09T17:04:20;6.03;;;2.25;;
23068;SDS011;11702;50.856;4.348;2022-09-09T17:06:49;5.35;;;1.92;;
23068;SDS011;11702;50.856;4.348;2022-09-09T17:09:19;5.82;;;2.50;;
23068;SDS011;11702;50.856;4.348;2022-09-09T17:11:47;7.07;;;3.25;;
23068;SDS011;11702;50.856;4.348;2022-09-09T17:14:16;6.80;;;2.70;;
23068;SDS011;11702;50.856;4.348;2022-09-09T17:16:43;4.72;;;2.08;;
23068;SDS011;11702;50.856;4.348;2022-09-09T17:19:09;5.68;;;2.08;;
23068;SDS011;11702;50.856;4.348;2022-09-09T17:21:38;6.57;;;2.60;;
23068;SDS011;11702;50.856;4.348;2022-09-09T17:24:04;6.35;;;3.38;;
23068;SDS011;11702;50.856;4.348;2022-09-09T17:26:31;5.28;;;2.65;;
23068;SDS011;11702;50.856;4.348;2022-09-09T17:28:58;8.48;;;2.75;;
23068;SDS011;11702;50.856;4.348;2022-09-09T17:31:25;8.38;;;2.10;;
23068;SDS011;11702;50.856;4.348;2022-09-09T17:33:52;5.30;;;1.88;;
23068;SDS011;11702;50.856;4.348;2022-09-09T17:36:19;5.28;;;1.90;;
23068;SDS011;11702;50.856;4.348;2022-09-09T17:38:49;7.15;;;1.85;;
23068;SDS011;11702;50.856;4.348;2022-09-09T17:41:20;11.27;;;2.35;;
23068;SDS011;11702;50.856;4.348;2022-09-09T17:43:48;9.48;;;2.17;;